sensor_id;sensor_type;location;lat;lon;timestamp;pressure;altitude;pressure_sealevel;temperature;humidity
62510;BME280;48558;48.242;11.654;2023-02-23T00:01:48;95867.34;;;6.30;100.00
62510;BME280;48558;48.242;11.654;2023-02-23T00:06:02;95861.72;;;6.33;100.00
62510;BME280;48558;48.242;11.654;2023-02-23T00:10:14;95878.22;;;6.21;100.00
62510;BME280;48558;48.242;11.654;2023-02-23T00:14:29;95884.84;;;6.11;100.00
62510;BME280;48558;48.242;11.654;2023-02-23T00:18:44;95876.28;;;6.09;100.00
62510;BME280;48558;48.242;11.654;2023-02-23T00:23:01;95882.13;;;5.98;100.00
62510;BME280;48558;48.242;11.654;2023-02-23T00:27:15;95872.03;;;5.95;100.00
62510;BME280;48558;48.242;11.654;2023-02-23T00:31:32;95880.91;;;6.12;100.00
62510;BME280;48558;48.242;11.654;2023-02-23T00:35:45;95872.22;;;6.13;100.00
62510;BME280;48558;48.242;11.654;2023-02-23T00:39:58;95882.31;;;6.38;100.00
62510;BME280;48558;48.242;11.654;2023-02-23T00:44:11;95889.38;;;6.39;100.00
62510;BME280;48558;48.242;11.654;2023-02-23T00:48:26;95884.81;;;6.45;100.00
62510;BME280;48558;48.242;11.654;2023-02-23T00:52:41;95886.06;;;6.44;100.00
62510;BME280;48558;48.242;11.654;2023-02-23T00:56:54;95879.19;;;6.27;100.00
62510;BME280;48558;48.242;11.654;2023-02-23T01:01:11;95883.09;;;6.17;100.00
62510;BME280;48558;48.242;11.654;2023-02-23T01:05:35;95878.84;;;6.03;100.00
62510;BME280;48558;48.242;11.654;2023-02-23T01:09:50;95869.53;;;6.01;100.00
62510;BME280;48558;48.242;11.654;2023-02-23T01:14:03;95877.28;;;6.15;100.00
62510;BME280;48558;48.242;11.654;2023-02-23T01:18:17;95877.19;;;6.40;100.00
62510;BME280;48558;48.242;11.654;2023-02-23T01:22:31;95881.81;;;6.30;100.00
62510;BME280;48558;48.242;11.654;2023-02-23T01:26:45;95884.50;;;6.43;100.00
62510;BME280;48558;48.242;11.654;2023-02-23T01:30:57;95878.84;;;6.37;100.00
62510;BME280;48558;48.242;11.654;2023-02-23T01:35:11;95874.81;;;6.51;100.00
62510;BME280;48558;48.242;11.654;2023-02-23T01:39:23;95875.53;;;6.64;100.00
62510;BME280;48558;48.242;11.654;2023-02-23T01:48:21;95878.06;;;6.80;100.00
62510;BME280;48558;48.242;11.654;2023-02-23T01:52:49;95883.00;;;6.64;100.00
62510;BME280;48558;48.242;11.654;2023-02-23T01:57:04;95880.19;;;6.55;100.00
62510;BME280;48558;48.242;11.654;2023-02-23T02:01:18;95882.28;;;6.50;100.00
62510;BME280;48558;48.242;11.654;2023-02-23T02:05:31;95869.66;;;6.53;100.00
62510;BME280;48558;48.242;11.654;2023-02-23T02:09:45;95872.56;;;6.59;100.00
62510;BME280;48558;48.242;11.654;2023-02-23T02:14:29;95868.59;;;6.38;100.00
62510;BME280;48558;48.242;11.654;2023-02-23T02:24:12;95863.66;;;6.11;100.00
62510;BME280;48558;48.242;11.654;2023-02-23T02:43:52;95846.81;;;6.00;100.00
62510;BME280;48558;48.242;11.654;2023-02-23T02:52:59;95853.06;;;6.01;100.00
62510;BME280;48558;48.242;11.654;2023-02-23T02:57:17;95847.19;;;5.90;100.00
62510;BME280;48558;48.242;11.654;2023-02-23T03:01:31;95844.75;;;5.92;100.00
62510;BME280;48558;48.242;11.654;2023-02-23T03:06:02;95846.84;;;5.88;100.00
62510;BME280;48558;48.242;11.654;2023-02-23T03:10:45;95861.78;;;5.74;100.00
62510;BME280;48558;48.242;11.654;2023-02-23T03:15:37;95872.06;;;5.82;100.00
62510;BME280;48558;48.242;11.654;2023-02-23T03:25:19;95873.09;;;5.51;100.00
62510;BME280;48558;48.242;11.654;2023-02-23T03:30:14;95878.34;;;5.58;100.00
62510;BME280;48558;48.242;11.654;2023-02-23T03:35:24;95873.97;;;5.60;100.00
62510;BME280;48558;48.242;11.654;2023-02-23T03:40:24;95868.81;;;5.62;100.00
62510;BME280;48558;48.242;11.654;2023-02-23T03:45:07;95878.53;;;5.76;100.00
62510;BME280;48558;48.242;11.654;2023-02-23T03:49:41;95879.03;;;5.49;100.00
62510;BME280;48558;48.242;11.654;2023-02-23T03:54:17;95870.69;;;5.28;100.00
62510;BME280;48558;48.242;11.654;2023-02-23T03:59:02;95871.47;;;5.16;100.00
62510;BME280;48558;48.242;11.654;2023-02-23T04:03:39;95880.63;;;5.09;100.00
62510;BME280;48558;48.242;11.654;2023-02-23T04:08:14;95890.50;;;5.06;100.00
62510;BME280;48558;48.242;11.654;2023-02-23T04:13:07;95883.03;;;4.94;100.00
62510;BME280;48558;48.242;11.654;2023-02-23T04:17:27;95885.75;;;4.82;100.00
62510;BME280;48558;48.242;11.654;2023-02-23T04:21:41;95888.34;;;4.60;100.00
62510;BME280;48558;48.242;11.654;2023-02-23T04:25:54;95892.69;;;4.58;100.00
62510;BME280;48558;48.242;11.654;2023-02-23T04:30:07;95903.25;;;4.72;100.00
62510;BME280;48558;48.242;11.654;2023-02-23T04:34:22;95887.22;;;4.58;100.00
62510;BME280;48558;48.242;11.654;2023-02-23T04:38:44;95884.53;;;4.42;100.00
62510;BME280;48558;48.242;11.654;2023-02-23T04:42:56;95893.66;;;4.51;100.00
62510;BME280;48558;48.242;11.654;2023-02-23T04:47:10;95885.00;;;4.53;100.00
62510;BME280;48558;48.242;11.654;2023-02-23T04:51:23;95874.97;;;4.50;100.00
62510;BME280;48558;48.242;11.654;2023-02-23T04:55:35;95874.72;;;4.44;100.00
62510;BME280;48558;48.242;11.654;2023-02-23T04:59:48;95898.34;;;4.51;100.00
62510;BME280;48558;48.242;11.654;2023-02-23T05:04:00;95893.84;;;4.44;100.00
62510;BME280;48558;48.242;11.654;2023-02-23T05:08:13;95895.72;;;4.47;100.00
62510;BME280;48558;48.242;11.654;2023-02-23T05:12:25;95888.00;;;4.29;100.00
62510;BME280;48558;48.242;11.654;2023-02-23T05:16:38;95897.09;;;4.39;100.00
62510;BME280;48558;48.242;11.654;2023-02-23T05:20:51;95899.97;;;4.35;100.00
62510;BME280;48558;48.242;11.654;2023-02-23T05:25:05;95892.53;;;4.36;100.00
62510;BME280;48558;48.242;11.654;2023-02-23T05:29:19;95905.50;;;4.32;100.00
62510;BME280;48558;48.242;11.654;2023-02-23T05:33:32;95897.50;;;4.25;100.00
62510;BME280;48558;48.242;11.654;2023-02-23T05:37:45;95904.69;;;4.19;100.00
62510;BME280;48558;48.242;11.654;2023-02-23T05:41:58;95904.69;;;4.19;100.00
62510;BME280;48558;48.242;11.654;2023-02-23T05:46:14;95907.75;;;4.21;100.00
62510;BME280;48558;48.242;11.654;2023-02-23T05:50:28;95900.16;;;4.28;100.00
62510;BME280;48558;48.242;11.654;2023-02-23T05:54:41;95904.22;;;4.36;100.00
62510;BME280;48558;48.242;11.654;2023-02-23T05:58:56;95914.00;;;4.50;100.00
62510;BME280;48558;48.242;11.654;2023-02-23T06:03:17;95911.00;;;4.61;100.00
62510;BME280;48558;48.242;11.654;2023-02-23T06:07:30;95915.56;;;4.64;100.00
62510;BME280;48558;48.242;11.654;2023-02-23T06:11:43;95909.25;;;4.67;100.00
62510;BME280;48558;48.242;11.654;2023-02-23T06:15:57;95922.53;;;4.81;100.00
62510;BME280;48558;48.242;11.654;2023-02-23T06:20:10;95916.44;;;4.89;100.00
62510;BME280;48558;48.242;11.654;2023-02-23T06:24:23;95926.84;;;5.07;100.00
62510;BME280;48558;48.242;11.654;2023-02-23T06:28:36;95921.63;;;5.13;100.00
62510;BME280;48558;48.242;11.654;2023-02-23T06:32:48;95923.06;;;5.30;100.00
62510;BME280;48558;48.242;11.654;2023-02-23T06:37:01;95926.34;;;5.37;100.00
62510;BME280;48558;48.242;11.654;2023-02-23T06:41:13;95929.75;;;5.54;100.00
62510;BME280;48558;48.242;11.654;2023-02-23T06:45:26;95940.72;;;5.66;100.00
62510;BME280;48558;48.242;11.654;2023-02-23T06:49:38;95940.81;;;5.75;100.00
62510;BME280;48558;48.242;11.654;2023-02-23T06:53:51;95935.69;;;5.90;100.00
62510;BME280;48558;48.242;11.654;2023-02-23T06:58:04;95940.19;;;5.97;100.00
62510;BME280;48558;48.242;11.654;2023-02-23T07:02:18;95944.75;;;6.12;100.00
62510;BME280;48558;48.242;11.654;2023-02-23T07:06:31;95940.69;;;6.17;100.00
62510;BME280;48558;48.242;11.654;2023-02-23T07:10:44;95947.13;;;6.35;100.00
62510;BME280;48558;48.242;11.654;2023-02-23T07:14:57;95947.38;;;6.50;100.00
62510;BME280;48558;48.242;11.654;2023-02-23T07:19:10;95949.00;;;6.60;100.00
62510;BME280;48558;48.242;11.654;2023-02-23T07:23:23;95958.91;;;6.79;100.00
62510;BME280;48558;48.242;11.654;2023-02-23T07:27:36;95945.31;;;6.97;100.00
62510;BME280;48558;48.242;11.654;2023-02-23T07:31:51;95936.56;;;7.11;100.00
62510;BME280;48558;48.242;11.654;2023-02-23T07:36:04;95948.84;;;7.50;100.00
62510;BME280;48558;48.242;11.654;2023-02-23T07:40:17;95939.94;;;7.77;100.00
62510;BME280;48558;48.242;11.654;2023-02-23T07:44:30;95948.59;;;8.06;100.00
62510;BME280;48558;48.242;11.654;2023-02-23T07:48:43;95950.34;;;8.31;100.00
62510;BME280;48558;48.242;11.654;2023-02-23T07:52:56;95949.47;;;8.52;100.00
62510;BME280;48558;48.242;11.654;2023-02-23T07:57:08;95956.81;;;8.64;100.00
62510;BME280;48558;48.242;11.654;2023-02-23T08:01:21;95949.31;;;8.83;100.00
62510;BME280;48558;48.242;11.654;2023-02-23T08:05:34;95953.44;;;8.87;100.00
62510;BME280;48558;48.242;11.654;2023-02-23T08:09:50;95949.00;;;9.08;100.00
62510;BME280;48558;48.242;11.654;2023-02-23T08:14:05;95954.63;;;9.41;100.00
62510;BME280;48558;48.242;11.654;2023-02-23T08:18:17;95956.94;;;9.33;100.00
62510;BME280;48558;48.242;11.654;2023-02-23T08:22:30;95956.47;;;9.25;100.00
62510;BME280;48558;48.242;11.654;2023-02-23T08:27:01;95958.44;;;9.34;100.00
62510;BME280;48558;48.242;11.654;2023-02-23T08:31:24;95959.69;;;9.33;100.00
62510;BME280;48558;48.242;11.654;2023-02-23T08:35:38;95953.38;;;9.42;100.00
62510;BME280;48558;48.242;11.654;2023-02-23T08:39:51;95949.41;;;9.43;100.00
62510;BME280;48558;48.242;11.654;2023-02-23T08:44:03;95961.03;;;9.47;100.00
62510;BME280;48558;48.242;11.654;2023-02-23T08:48:16;95961.38;;;9.81;100.00
62510;BME280;48558;48.242;11.654;2023-02-23T08:52:28;95946.91;;;9.54;100.00
62510;BME280;48558;48.242;11.654;2023-02-23T08:56:41;95956.72;;;9.96;100.00
62510;BME280;48558;48.242;11.654;2023-02-23T09:00:54;95955.34;;;9.92;100.00
62510;BME280;48558;48.242;11.654;2023-02-23T09:05:07;95956.19;;;10.16;100.00
62510;BME280;48558;48.242;11.654;2023-02-23T09:09:20;95959.19;;;9.94;100.00
62510;BME280;48558;48.242;11.654;2023-02-23T09:13:32;95951.69;;;10.28;100.00
62510;BME280;48558;48.242;11.654;2023-02-23T09:17:46;95964.03;;;10.18;100.00
62510;BME280;48558;48.242;11.654;2023-02-23T09:21:59;95948.09;;;10.36;100.00
62510;BME280;48558;48.242;11.654;2023-02-23T09:26:11;95960.56;;;10.55;100.00
62510;BME280;48558;48.242;11.654;2023-02-23T09:30:25;95962.31;;;10.67;100.00
62510;BME280;48558;48.242;11.654;2023-02-23T09:34:38;95970.66;;;11.20;100.00
62510;BME280;48558;48.242;11.654;2023-02-23T09:38:56;95969.50;;;11.12;100.00
62510;BME280;48558;48.242;11.654;2023-02-23T09:43:23;95963.94;;;10.98;100.00
62510;BME280;48558;48.242;11.654;2023-02-23T09:48:25;95969.50;;;11.27;100.00
62510;BME280;48558;48.242;11.654;2023-02-23T09:52:41;95973.53;;;10.88;100.00
62510;BME280;48558;48.242;11.654;2023-02-23T09:57:35;95959.88;;;10.84;100.00
62510;BME280;48558;48.242;11.654;2023-02-23T10:06:05;95974.38;;;11.32;100.00
62510;BME280;48558;48.242;11.654;2023-02-23T10:10:35;95981.63;;;11.15;100.00
62510;BME280;48558;48.242;11.654;2023-02-23T10:19:32;95980.59;;;11.85;100.00
62510;BME280;48558;48.242;11.654;2023-02-23T10:23:53;95966.28;;;11.43;100.00
62510;BME280;48558;48.242;11.654;2023-02-23T10:28:18;95967.63;;;11.77;100.00
62510;BME280;48558;48.242;11.654;2023-02-23T10:32:50;95973.72;;;11.51;100.00
62510;BME280;48558;48.242;11.654;2023-02-23T10:37:09;95982.44;;;12.03;100.00
62510;BME280;48558;48.242;11.654;2023-02-23T10:41:23;95966.13;;;11.76;100.00
62510;BME280;48558;48.242;11.654;2023-02-23T10:45:40;95963.25;;;11.56;100.00
62510;BME280;48558;48.242;11.654;2023-02-23T10:49:57;95965.31;;;11.31;100.00
62510;BME280;48558;48.242;11.654;2023-02-23T10:54:36;95964.25;;;11.14;100.00
62510;BME280;48558;48.242;11.654;2023-02-23T10:58:53;95975.16;;;11.62;100.00
62510;BME280;48558;48.242;11.654;2023-02-23T11:03:22;95962.44;;;11.99;100.00
62510;BME280;48558;48.242;11.654;2023-02-23T11:07:39;95955.63;;;11.80;100.00
62510;BME280;48558;48.242;11.654;2023-02-23T11:11:56;95957.31;;;11.63;100.00
62510;BME280;48558;48.242;11.654;2023-02-23T11:16:13;95961.50;;;11.43;100.00
62510;BME280;48558;48.242;11.654;2023-02-23T11:20:34;95960.38;;;11.50;100.00
62510;BME280;48558;48.242;11.654;2023-02-23T11:24:50;95960.09;;;11.77;100.00
62510;BME280;48558;48.242;11.654;2023-02-23T11:29:13;95945.22;;;11.60;100.00
62510;BME280;48558;48.242;11.654;2023-02-23T11:33:31;95941.13;;;11.85;100.00
62510;BME280;48558;48.242;11.654;2023-02-23T11:37:48;95937.63;;;12.59;100.00
62510;BME280;48558;48.242;11.654;2023-02-23T11:46:41;95932.09;;;12.79;100.00
62510;BME280;48558;48.242;11.654;2023-02-23T11:50:57;95929.63;;;12.87;100.00
62510;BME280;48558;48.242;11.654;2023-02-23T11:55:15;95921.06;;;12.65;100.00
62510;BME280;48558;48.242;11.654;2023-02-23T11:59:38;95921.00;;;12.04;100.00
62510;BME280;48558;48.242;11.654;2023-02-23T12:03:55;95914.69;;;12.18;100.00
62510;BME280;48558;48.242;11.654;2023-02-23T12:08:13;95916.44;;;12.56;100.00
62510;BME280;48558;48.242;11.654;2023-02-23T12:12:29;95906.25;;;12.93;100.00
62510;BME280;48558;48.242;11.654;2023-02-23T12:16:50;95899.25;;;12.72;100.00
62510;BME280;48558;48.242;11.654;2023-02-23T12:21:40;95902.25;;;12.94;100.00
62510;BME280;48558;48.242;11.654;2023-02-23T12:26:11;95894.38;;;12.87;100.00
62510;BME280;48558;48.242;11.654;2023-02-23T12:30:41;95883.47;;;13.30;100.00
62510;BME280;48558;48.242;11.654;2023-02-23T12:35:01;95884.91;;;13.82;100.00
62510;BME280;48558;48.242;11.654;2023-02-23T12:39:26;95879.34;;;13.45;100.00
62510;BME280;48558;48.242;11.654;2023-02-23T12:43:55;95881.16;;;13.23;100.00
62510;BME280;48558;48.242;11.654;2023-02-23T12:48:34;95875.19;;;13.61;100.00
62510;BME280;48558;48.242;11.654;2023-02-23T12:52:59;95866.47;;;13.48;100.00
62510;BME280;48558;48.242;11.654;2023-02-23T13:01:58;95873.81;;;13.20;100.00
62510;BME280;48558;48.242;11.654;2023-02-23T13:11:12;95867.28;;;13.23;100.00
62510;BME280;48558;48.242;11.654;2023-02-23T13:20:34;95875.06;;;12.53;100.00
62510;BME280;48558;48.242;11.654;2023-02-23T13:24:52;95868.72;;;12.92;100.00
62510;BME280;48558;48.242;11.654;2023-02-23T13:33:43;95867.41;;;13.39;100.00
62510;BME280;48558;48.242;11.654;2023-02-23T13:52:09;95857.13;;;13.82;100.00
62510;BME280;48558;48.242;11.654;2023-02-23T13:56:29;95858.75;;;14.36;100.00
62510;BME280;48558;48.242;11.654;2023-02-23T14:00:52;95855.72;;;13.92;100.00
62510;BME280;48558;48.242;11.654;2023-02-23T14:05:22;95850.53;;;14.16;100.00
62510;BME280;48558;48.242;11.654;2023-02-23T14:09:56;95826.31;;;13.75;100.00
62510;BME280;48558;48.242;11.654;2023-02-23T14:27:41;95838.63;;;13.37;100.00
62510;BME280;48558;48.242;11.654;2023-02-23T14:32:25;95846.38;;;13.02;100.00
62510;BME280;48558;48.242;11.654;2023-02-23T14:36:40;95847.69;;;13.06;100.00
62510;BME280;48558;48.242;11.654;2023-02-23T14:40:55;95845.09;;;13.54;100.00
62510;BME280;48558;48.242;11.654;2023-02-23T14:45:27;95838.25;;;12.98;100.00
62510;BME280;48558;48.242;11.654;2023-02-23T14:49:57;95842.69;;;12.84;100.00
62510;BME280;48558;48.242;11.654;2023-02-23T14:58:51;95840.28;;;12.98;100.00
62510;BME280;48558;48.242;11.654;2023-02-23T15:03:06;95836.56;;;12.55;100.00
62510;BME280;48558;48.242;11.654;2023-02-23T15:07:37;95839.38;;;12.60;100.00
62510;BME280;48558;48.242;11.654;2023-02-23T15:11:50;95839.50;;;12.97;100.00
62510;BME280;48558;48.242;11.654;2023-02-23T15:20:42;95848.75;;;12.43;100.00
62510;BME280;48558;48.242;11.654;2023-02-23T15:25:07;95847.16;;;12.16;100.00
62510;BME280;48558;48.242;11.654;2023-02-23T15:29:37;95837.72;;;12.08;100.00
62510;BME280;48558;48.242;11.654;2023-02-23T15:33:49;95837.44;;;12.26;100.00
62510;BME280;48558;48.242;11.654;2023-02-23T15:38:07;95833.91;;;12.05;100.00
62510;BME280;48558;48.242;11.654;2023-02-23T15:42:38;95836.88;;;11.82;100.00
62510;BME280;48558;48.242;11.654;2023-02-23T15:47:24;95817.41;;;11.76;100.00
62510;BME280;48558;48.242;11.654;2023-02-23T15:51:58;95841.47;;;11.70;100.00
62510;BME280;48558;48.242;11.654;2023-02-23T15:56:28;95835.53;;;11.63;100.00
62510;BME280;48558;48.242;11.654;2023-02-23T16:00:57;95833.75;;;11.45;100.00
62510;BME280;48558;48.242;11.654;2023-02-23T16:05:22;95828.91;;;11.40;100.00
62510;BME280;48558;48.242;11.654;2023-02-23T16:09:37;95828.72;;;11.29;100.00
62510;BME280;48558;48.242;11.654;2023-02-23T16:13:52;95824.72;;;11.15;100.00
62510;BME280;48558;48.242;11.654;2023-02-23T16:18:12;95830.47;;;10.97;100.00
62510;BME280;48558;48.242;11.654;2023-02-23T16:22:27;95823.59;;;10.78;100.00
62510;BME280;48558;48.242;11.654;2023-02-23T16:26:44;95826.53;;;10.60;100.00
62510;BME280;48558;48.242;11.654;2023-02-23T16:31:06;95830.25;;;10.57;100.00
62510;BME280;48558;48.242;11.654;2023-02-23T16:35:20;95836.81;;;10.59;100.00
62510;BME280;48558;48.242;11.654;2023-02-23T16:39:33;95832.78;;;10.46;100.00
62510;BME280;48558;48.242;11.654;2023-02-23T16:43:47;95833.81;;;10.34;100.00
62510;BME280;48558;48.242;11.654;2023-02-23T16:48:00;95834.91;;;10.13;100.00
62510;BME280;48558;48.242;11.654;2023-02-23T16:52:17;95839.31;;;9.86;100.00
62510;BME280;48558;48.242;11.654;2023-02-23T16:56:37;95830.91;;;9.57;100.00
62510;BME280;48558;48.242;11.654;2023-02-23T17:00:51;95842.25;;;9.50;100.00
62510;BME280;48558;48.242;11.654;2023-02-23T17:05:12;95842.84;;;9.21;100.00
62510;BME280;48558;48.242;11.654;2023-02-23T17:09:34;95846.16;;;8.93;100.00
62510;BME280;48558;48.242;11.654;2023-02-23T17:13:46;95851.69;;;8.75;100.00
62510;BME280;48558;48.242;11.654;2023-02-23T17:17:59;95851.09;;;8.71;100.00
62510;BME280;48558;48.242;11.654;2023-02-23T17:22:12;95845.72;;;8.67;100.00
62510;BME280;48558;48.242;11.654;2023-02-23T17:26:25;95850.47;;;8.57;100.00
62510;BME280;48558;48.242;11.654;2023-02-23T17:30:38;95839.16;;;8.46;100.00
62510;BME280;48558;48.242;11.654;2023-02-23T17:34:51;95859.97;;;8.29;100.00
62510;BME280;48558;48.242;11.654;2023-02-23T17:39:04;95862.50;;;8.06;100.00
62510;BME280;48558;48.242;11.654;2023-02-23T17:43:19;95857.13;;;7.75;100.00
62510;BME280;48558;48.242;11.654;2023-02-23T17:47:35;95870.81;;;7.57;100.00
62510;BME280;48558;48.242;11.654;2023-02-23T17:51:51;95866.75;;;7.40;100.00
62510;BME280;48558;48.242;11.654;2023-02-23T17:56:03;95876.47;;;7.22;100.00
62510;BME280;48558;48.242;11.654;2023-02-23T18:00:18;95872.13;;;7.12;100.00
62510;BME280;48558;48.242;11.654;2023-02-23T18:04:31;95866.53;;;6.94;100.00
62510;BME280;48558;48.242;11.654;2023-02-23T18:08:44;95864.88;;;6.66;100.00
62510;BME280;48558;48.242;11.654;2023-02-23T18:13:06;95877.28;;;6.58;100.00
62510;BME280;48558;48.242;11.654;2023-02-23T18:17:19;95871.88;;;6.45;100.00
62510;BME280;48558;48.242;11.654;2023-02-23T18:21:32;95868.03;;;6.43;100.00
62510;BME280;48558;48.242;11.654;2023-02-23T18:25:46;95876.41;;;6.39;100.00
62510;BME280;48558;48.242;11.654;2023-02-23T18:29:59;95872.75;;;6.21;100.00
62510;BME280;48558;48.242;11.654;2023-02-23T18:34:11;95872.72;;;5.99;100.00
62510;BME280;48558;48.242;11.654;2023-02-23T18:38:25;95863.28;;;5.75;100.00
62510;BME280;48558;48.242;11.654;2023-02-23T18:42:37;95872.94;;;5.79;100.00
62510;BME280;48558;48.242;11.654;2023-02-23T18:46:50;95871.66;;;5.71;100.00
62510;BME280;48558;48.242;11.654;2023-02-23T18:51:04;95867.81;;;5.56;100.00
62510;BME280;48558;48.242;11.654;2023-02-23T18:55:18;95871.44;;;5.41;100.00
62510;BME280;48558;48.242;11.654;2023-02-23T18:59:34;95860.59;;;5.37;100.00
62510;BME280;48558;48.242;11.654;2023-02-23T19:03:48;95860.94;;;5.27;100.00
62510;BME280;48558;48.242;11.654;2023-02-23T19:08:03;95865.66;;;5.26;100.00
62510;BME280;48558;48.242;11.654;2023-02-23T19:12:19;95868.16;;;5.33;100.00
62510;BME280;48558;48.242;11.654;2023-02-23T19:16:32;95859.19;;;5.33;100.00
62510;BME280;48558;48.242;11.654;2023-02-23T19:20:46;95862.03;;;5.17;100.00
62510;BME280;48558;48.242;11.654;2023-02-23T19:25:03;95852.72;;;5.01;100.00
62510;BME280;48558;48.242;11.654;2023-02-23T19:29:16;95867.16;;;4.89;100.00
62510;BME280;48558;48.242;11.654;2023-02-23T19:33:28;95865.25;;;4.74;100.00
62510;BME280;48558;48.242;11.654;2023-02-23T19:37:44;95874.66;;;4.60;100.00
62510;BME280;48558;48.242;11.654;2023-02-23T19:42:01;95869.75;;;4.68;100.00
62510;BME280;48558;48.242;11.654;2023-02-23T19:46:15;95877.13;;;4.55;100.00
62510;BME280;48558;48.242;11.654;2023-02-23T19:50:28;95878.66;;;4.43;100.00
62510;BME280;48558;48.242;11.654;2023-02-23T19:54:42;95876.34;;;4.42;100.00
62510;BME280;48558;48.242;11.654;2023-02-23T19:58:56;95879.50;;;4.40;100.00
62510;BME280;48558;48.242;11.654;2023-02-23T20:03:10;95865.66;;;4.47;100.00
62510;BME280;48558;48.242;11.654;2023-02-23T20:07:25;95876.66;;;4.44;100.00
62510;BME280;48558;48.242;11.654;2023-02-23T20:11:38;95880.03;;;4.35;100.00
62510;BME280;48558;48.242;11.654;2023-02-23T20:16:01;95879.66;;;4.20;100.00
62510;BME280;48558;48.242;11.654;2023-02-23T20:20:15;95883.25;;;4.17;100.00
62510;BME280;48558;48.242;11.654;2023-02-23T20:24:28;95875.56;;;4.12;100.00
62510;BME280;48558;48.242;11.654;2023-02-23T20:28:41;95868.50;;;3.99;100.00
62510;BME280;48558;48.242;11.654;2023-02-23T20:32:54;95871.75;;;3.94;100.00
62510;BME280;48558;48.242;11.654;2023-02-23T20:37:07;95871.34;;;3.95;100.00
62510;BME280;48558;48.242;11.654;2023-02-23T20:41:19;95865.94;;;3.92;100.00
62510;BME280;48558;48.242;11.654;2023-02-23T20:45:32;95874.91;;;4.08;100.00
62510;BME280;48558;48.242;11.654;2023-02-23T20:49:45;95861.34;;;4.33;100.00
62510;BME280;48558;48.242;11.654;2023-02-23T20:53:57;95853.81;;;4.50;100.00
62510;BME280;48558;48.242;11.654;2023-02-23T20:58:20;95866.56;;;4.69;100.00
62510;BME280;48558;48.242;11.654;2023-02-23T21:02:39;95872.06;;;4.82;100.00
62510;BME280;48558;48.242;11.654;2023-02-23T21:06:52;95858.41;;;4.94;100.00
62510;BME280;48558;48.242;11.654;2023-02-23T21:11:05;95856.44;;;4.95;100.00
62510;BME280;48558;48.242;11.654;2023-02-23T21:15:18;95854.56;;;5.04;100.00
62510;BME280;48558;48.242;11.654;2023-02-23T21:19:31;95842.97;;;5.00;100.00
62510;BME280;48558;48.242;11.654;2023-02-23T21:23:44;95846.69;;;5.06;100.00
62510;BME280;48558;48.242;11.654;2023-02-23T21:27:56;95850.50;;;5.09;100.00
62510;BME280;48558;48.242;11.654;2023-02-23T21:32:13;95856.09;;;5.05;100.00
62510;BME280;48558;48.242;11.654;2023-02-23T21:36:36;95848.88;;;4.99;100.00
62510;BME280;48558;48.242;11.654;2023-02-23T21:40:48;95847.00;;;4.96;100.00
62510;BME280;48558;48.242;11.654;2023-02-23T21:45:01;95840.22;;;5.00;100.00
62510;BME280;48558;48.242;11.654;2023-02-23T21:49:14;95839.69;;;5.05;100.00
62510;BME280;48558;48.242;11.654;2023-02-23T21:53:27;95834.84;;;5.09;100.00
62510;BME280;48558;48.242;11.654;2023-02-23T21:57:40;95837.72;;;5.19;100.00
62510;BME280;48558;48.242;11.654;2023-02-23T22:01:53;95829.03;;;5.20;100.00
62510;BME280;48558;48.242;11.654;2023-02-23T22:06:07;95829.16;;;5.17;100.00
62510;BME280;48558;48.242;11.654;2023-02-23T22:10:22;95833.19;;;5.25;100.00
62510;BME280;48558;48.242;11.654;2023-02-23T22:14:36;95832.47;;;5.24;100.00
62510;BME280;48558;48.242;11.654;2023-02-23T22:18:48;95826.41;;;5.29;100.00
62510;BME280;48558;48.242;11.654;2023-02-23T22:23:01;95823.44;;;5.36;100.00
62510;BME280;48558;48.242;11.654;2023-02-23T22:27:15;95835.91;;;5.50;100.00
62510;BME280;48558;48.242;11.654;2023-02-23T22:31:27;95828.38;;;5.54;100.00
62510;BME280;48558;48.242;11.654;2023-02-23T22:35:40;95810.84;;;5.51;100.00
62510;BME280;48558;48.242;11.654;2023-02-23T22:40:03;95826.59;;;5.60;100.00
62510;BME280;48558;48.242;11.654;2023-02-23T22:44:31;95818.38;;;5.60;100.00
62510;BME280;48558;48.242;11.654;2023-02-23T22:48:44;95810.47;;;5.62;100.00
62510;BME280;48558;48.242;11.654;2023-02-23T22:52:56;95812.44;;;5.61;100.00
62510;BME280;48558;48.242;11.654;2023-02-23T22:57:09;95805.88;;;5.59;100.00
62510;BME280;48558;48.242;11.654;2023-02-23T23:01:21;95811.34;;;5.59;100.00
62510;BME280;48558;48.242;11.654;2023-02-23T23:05:37;95805.88;;;5.59;100.00
62510;BME280;48558;48.242;11.654;2023-02-23T23:09:50;95803.25;;;5.55;100.00
62510;BME280;48558;48.242;11.654;2023-02-23T23:14:03;95802.53;;;5.42;100.00
62510;BME280;48558;48.242;11.654;2023-02-23T23:18:18;95785.78;;;5.28;100.00
62510;BME280;48558;48.242;11.654;2023-02-23T23:22:31;95785.31;;;5.29;100.00
62510;BME280;48558;48.242;11.654;2023-02-23T23:26:52;95776.78;;;5.27;100.00
62510;BME280;48558;48.242;11.654;2023-02-23T23:31:07;95787.09;;;5.36;100.00
62510;BME280;48558;48.242;11.654;2023-02-23T23:35:23;95771.31;;;5.27;100.00
62510;BME280;48558;48.242;11.654;2023-02-23T23:39:36;95773.06;;;5.21;100.00
62510;BME280;48558;48.242;11.654;2023-02-23T23:43:55;95760.78;;;5.26;100.00
62510;BME280;48558;48.242;11.654;2023-02-23T23:48:09;95770.31;;;5.34;100.00
62510;BME280;48558;48.242;11.654;2023-02-23T23:52:22;95773.28;;;5.27;100.00
62510;BME280;48558;48.242;11.654;2023-02-23T23:56:36;95771.53;;;5.33;100.00
